Main page
METAR-TAF:

METAR-TAF

Airports :

Kos International Airport

Kos, Greece

latitude: 36-47N, longitude: 027-04E, elevation: 129 m

Current weather observation

The report was made 23 minutes ago, at 09:50 UTC
Wind 7 kt from the Southeast
Temperature 27°C
Humidity 48%
Pressure 1015 hPa
Visibility 10 km or more
no clouds below 1500 m and no cumulonimbus

METAR: LGKO 220950Z 14007KT CAVOK 27/15 Q1015

Time: 13:13 (10:13 UTC)

Forecast

The report was made 5 hours and 13 minutes ago, at 05:00 UTC
Forecast valid from 22 at 06 UTC to 23 at 06 UTC
Wind 10 kt from the Southeast
Visibility 10 km or more
Few clouds at a height of 2000 ft
Becoming
from 22 at 19 UTC to 22 at 21 UTC
Wind 10 kt from the Northeast

TAF: LGKO 220500Z 2206/2306 13010KT 9999 FEW020 BECMG 2219/2221 04010KT

Weather observations and forecasts of more than 4000 airports (METAR and TAF reports).

The available stations are represented by yellow and red dots on the map.

Hover mouse over dot to see the name of the station.

Then click to see weather observations and forecasts.

To change the map : click on the green buttons with a black cross to zoom in, on the green button with a dash to zoom out, or on the green arrows for adjacent maps.


METAR-TAF: